sensor_id;sensor_type;location;lat;lon;timestamp;pressure;altitude;pressure_sealevel;temperature;humidity
19761;BME280;10039;42.632;23.408;2023-03-20T00:00:50;95334.09;;;6.77;61.91
19761;BME280;10039;42.632;23.408;2023-03-20T00:03:16;95312.88;;;6.77;61.90
19761;BME280;10039;42.632;23.408;2023-03-20T00:05:42;95337.91;;;6.90;61.67
19761;BME280;10039;42.632;23.408;2023-03-20T00:08:08;95313.66;;;6.67;62.00
19761;BME280;10039;42.632;23.408;2023-03-20T00:10:52;95288.59;;;6.58;62.25
19761;BME280;10039;42.632;23.408;2023-03-20T00:13:23;95318.19;;;6.73;62.24
19761;BME280;10039;42.632;23.408;2023-03-20T00:15:50;95309.13;;;6.81;62.12
19761;BME280;10039;42.632;23.408;2023-03-20T00:18:20;95302.25;;;6.66;61.89
19761;BME280;10039;42.632;23.408;2023-03-20T00:20:50;95311.38;;;6.90;61.66
19761;BME280;10039;42.632;23.408;2023-03-20T00:23:16;95308.31;;;6.63;61.69
19761;BME280;10039;42.632;23.408;2023-03-20T00:25:43;95309.84;;;6.75;61.77
19761;BME280;10039;42.632;23.408;2023-03-20T00:33:50;95289.00;;;6.66;61.73
19761;BME280;10039;42.632;23.408;2023-03-20T00:36:16;95313.28;;;6.86;61.71
19761;BME280;10039;42.632;23.408;2023-03-20T00:38:41;95315.16;;;6.85;61.89
19761;BME280;10039;42.632;23.408;2023-03-20T00:44:21;95312.88;;;6.84;62.00
19761;BME280;10039;42.632;23.408;2023-03-20T00:46:51;95291.66;;;6.66;62.06
19761;BME280;10039;42.632;23.408;2023-03-20T00:49:20;95287.88;;;6.57;62.00
19761;BME280;10039;42.632;23.408;2023-03-20T00:51:47;95299.25;;;6.82;61.75
19761;BME280;10039;42.632;23.408;2023-03-20T00:54:15;95290.91;;;6.90;61.40
19761;BME280;10039;42.632;23.408;2023-03-20T00:57:02;95288.63;;;6.85;60.88
19761;BME280;10039;42.632;23.408;2023-03-20T00:59:36;95310.25;;;6.91;61.57
19761;BME280;10039;42.632;23.408;2023-03-20T01:02:03;95303.78;;;6.85;61.44
19761;BME280;10039;42.632;23.408;2023-03-20T01:04:35;95289.38;;;6.68;61.74
19761;BME280;10039;42.632;23.408;2023-03-20T01:07:01;95314.41;;;6.74;62.08
19761;BME280;10039;42.632;23.408;2023-03-20T01:09:27;95279.16;;;6.53;61.97
19761;BME280;10039;42.632;23.408;2023-03-20T01:11:53;95265.09;;;6.42;61.87
19761;BME280;10039;42.632;23.408;2023-03-20T01:14:18;95290.16;;;6.62;62.11
19761;BME280;10039;42.632;23.408;2023-03-20T01:16:44;95283.31;;;6.54;61.94
19761;BME280;10039;42.632;23.408;2023-03-20T01:19:13;95255.59;;;6.20;62.40
19761;BME280;10039;42.632;23.408;2023-03-20T01:21:40;95271.88;;;6.26;62.43
19761;BME280;10039;42.632;23.408;2023-03-20T01:24:06;95262.78;;;6.13;62.90
19761;BME280;10039;42.632;23.408;2023-03-20T01:26:39;95271.50;;;6.24;62.68
19761;BME280;10039;42.632;23.408;2023-03-20T01:29:21;95290.44;;;6.22;62.51
19761;BME280;10039;42.632;23.408;2023-03-20T01:31:48;95276.41;;;6.15;62.68
19761;BME280;10039;42.632;23.408;2023-03-20T01:34:14;95288.56;;;6.26;62.52
19761;BME280;10039;42.632;23.408;2023-03-20T01:36:44;95280.22;;;6.24;62.55
19761;BME280;10039;42.632;23.408;2023-03-20T01:39:12;95298.78;;;6.38;62.39
19761;BME280;10039;42.632;23.408;2023-03-20T01:41:38;95265.44;;;6.16;62.30
19761;BME280;10039;42.632;23.408;2023-03-20T01:44:19;95285.94;;;6.40;62.50
19761;BME280;10039;42.632;23.408;2023-03-20T01:46:46;95295.41;;;6.45;62.01
19761;BME280;10039;42.632;23.408;2023-03-20T01:51:46;95266.22;;;6.31;62.25
19761;BME280;10039;42.632;23.408;2023-03-20T01:54:18;95281.41;;;6.55;61.65
19761;BME280;10039;42.632;23.408;2023-03-20T01:56:49;95288.25;;;6.63;61.65
19761;BME280;10039;42.632;23.408;2023-03-20T02:01:49;95293.94;;;6.78;60.83
19761;BME280;10039;42.632;23.408;2023-03-20T02:04:15;95314.41;;;6.81;60.92
19761;BME280;10039;42.632;23.408;2023-03-20T02:06:41;95289.03;;;6.73;60.97
19761;BME280;10039;42.632;23.408;2023-03-20T02:09:09;95270.44;;;6.56;61.09
19761;BME280;10039;42.632;23.408;2023-03-20T02:11:36;95290.50;;;6.50;61.39
19761;BME280;10039;42.632;23.408;2023-03-20T02:14:03;95279.09;;;6.29;61.96
19761;BME280;10039;42.632;23.408;2023-03-20T02:16:29;95293.84;;;6.19;62.92
19761;BME280;10039;42.632;23.408;2023-03-20T02:18:55;95264.22;;;5.93;63.15
19761;BME280;10039;42.632;23.408;2023-03-20T02:21:48;95280.19;;;6.03;63.34
19761;BME280;10039;42.632;23.408;2023-03-20T02:27:33;95297.91;;;5.89;63.54
19761;BME280;10039;42.632;23.408;2023-03-20T02:40:56;95303.44;;;5.70;64.65
19761;BME280;10039;42.632;23.408;2023-03-20T02:55:23;95301.72;;;5.31;65.75
19761;BME280;10039;42.632;23.408;2023-03-20T02:58:12;95294.91;;;5.30;65.93
19761;BME280;10039;42.632;23.408;2023-03-20T03:00:49;95291.84;;;5.24;65.91
19761;BME280;10039;42.632;23.408;2023-03-20T03:03:27;95293.72;;;5.20;65.97
19761;BME280;10039;42.632;23.408;2023-03-20T03:05:58;95285.72;;;5.10;66.53
19761;BME280;10039;42.632;23.408;2023-03-20T03:08:28;95255.66;;;4.81;66.93
19761;BME280;10039;42.632;23.408;2023-03-20T03:11:03;95275.00;;;4.92;66.54
19761;BME280;10039;42.632;23.408;2023-03-20T03:13:32;95289.84;;;5.07;66.23
19761;BME280;10039;42.632;23.408;2023-03-20T03:16:04;95293.22;;;5.04;66.64
19761;BME280;10039;42.632;23.408;2023-03-20T03:18:33;95265.13;;;4.86;66.32
19761;BME280;10039;42.632;23.408;2023-03-20T03:21:02;95289.44;;;5.05;66.50
19761;BME280;10039;42.632;23.408;2023-03-20T03:23:30;95287.59;;;5.09;66.12
19761;BME280;10039;42.632;23.408;2023-03-20T03:25:57;95279.25;;;5.07;65.92
19761;BME280;10039;42.632;23.408;2023-03-20T03:30:55;95291.00;;;5.13;65.94
19761;BME280;10039;42.632;23.408;2023-03-20T03:33:29;95262.56;;;4.96;65.80
19761;BME280;10039;42.632;23.408;2023-03-20T03:36:44;95294.06;;;5.19;65.88
19761;BME280;10039;42.632;23.408;2023-03-20T03:39:36;95287.59;;;5.09;66.26
19761;BME280;10039;42.632;23.408;2023-03-20T03:47:12;95284.88;;;4.99;66.26
19761;BME280;10039;42.632;23.408;2023-03-20T03:49:44;95275.69;;;4.82;66.60
19761;BME280;10039;42.632;23.408;2023-03-20T03:52:16;95286.34;;;4.96;66.26
19761;BME280;10039;42.632;23.408;2023-03-20T03:55:04;95303.00;;;5.00;66.27
19761;BME280;10039;42.632;23.408;2023-03-20T03:57:40;95294.72;;;5.05;66.21
19761;BME280;10039;42.632;23.408;2023-03-20T04:00:10;95282.50;;;4.87;66.52
19761;BME280;10039;42.632;23.408;2023-03-20T04:02:39;95244.97;;;4.67;66.41
19761;BME280;10039;42.632;23.408;2023-03-20T04:05:06;95278.25;;;4.75;65.97
19761;BME280;10039;42.632;23.408;2023-03-20T04:07:32;95293.00;;;4.76;66.29
19761;BME280;10039;42.632;23.408;2023-03-20T04:09:57;95266.19;;;4.35;66.99
19761;BME280;10039;42.632;23.408;2023-03-20T04:12:33;95285.16;;;4.43;67.61
19761;BME280;10039;42.632;23.408;2023-03-20T04:14:59;95287.41;;;4.41;67.75
19761;BME280;10039;42.632;23.408;2023-03-20T04:17:25;95292.09;;;4.58;67.69
19761;BME280;10039;42.632;23.408;2023-03-20T04:19:50;95259.44;;;4.37;66.97
19761;BME280;10039;42.632;23.408;2023-03-20T04:22:16;95272.34;;;4.45;67.17
19761;BME280;10039;42.632;23.408;2023-03-20T04:24:41;95286.03;;;4.58;67.33
19761;BME280;10039;42.632;23.408;2023-03-20T04:27:07;95261.84;;;4.52;66.81
19761;BME280;10039;42.632;23.408;2023-03-20T04:29:33;95249.53;;;4.70;66.32
19761;BME280;10039;42.632;23.408;2023-03-20T04:31:58;95270.16;;;5.01;65.61
19761;BME280;10039;42.632;23.408;2023-03-20T04:34:24;95250.09;;;4.93;65.36
19761;BME280;10039;42.632;23.408;2023-03-20T04:36:50;95264.06;;;4.97;65.50
19761;BME280;10039;42.632;23.408;2023-03-20T04:39:15;95241.78;;;4.95;65.19
19761;BME280;10039;42.632;23.408;2023-03-20T04:41:41;95266.88;;;5.22;64.96
19761;BME280;10039;42.632;23.408;2023-03-20T04:44:06;95262.72;;;5.17;64.64
19761;BME280;10039;42.632;23.408;2023-03-20T04:46:32;95261.19;;;5.16;64.78
19761;BME280;10039;42.632;23.408;2023-03-20T04:48:58;95258.63;;;5.30;64.46
19761;BME280;10039;42.632;23.408;2023-03-20T04:51:24;95247.28;;;5.30;63.92
19761;BME280;10039;42.632;23.408;2023-03-20T04:53:49;95259.13;;;5.53;63.79
19761;BME280;10039;42.632;23.408;2023-03-20T04:56:15;95257.63;;;5.55;63.77
19761;BME280;10039;42.632;23.408;2023-03-20T04:58:41;95272.06;;;5.72;64.01
19761;BME280;10039;42.632;23.408;2023-03-20T05:01:06;95278.50;;;5.74;63.73
19761;BME280;10039;42.632;23.408;2023-03-20T05:03:32;95292.22;;;5.87;63.44
19761;BME280;10039;42.632;23.408;2023-03-20T05:05:58;95286.50;;;5.78;63.55
19761;BME280;10039;42.632;23.408;2023-03-20T05:08:23;95273.19;;;5.71;63.80
19761;BME280;10039;42.632;23.408;2023-03-20T05:10:50;95280.06;;;5.82;63.82
19761;BME280;10039;42.632;23.408;2023-03-20T05:13:16;95295.16;;;5.75;63.59
19761;BME280;10039;42.632;23.408;2023-03-20T05:15:42;95302.03;;;5.83;63.73
19761;BME280;10039;42.632;23.408;2023-03-20T05:18:07;95313.38;;;5.80;64.03
19761;BME280;10039;42.632;23.408;2023-03-20T05:20:34;95316.41;;;5.82;64.32
19761;BME280;10039;42.632;23.408;2023-03-20T05:23:00;95292.03;;;5.52;64.51
19761;BME280;10039;42.632;23.408;2023-03-20T05:25:26;95289.31;;;5.42;65.25
19761;BME280;10039;42.632;23.408;2023-03-20T05:27:53;95318.88;;;5.57;66.12
19761;BME280;10039;42.632;23.408;2023-03-20T05:30:19;95314.69;;;5.49;66.13
19761;BME280;10039;42.632;23.408;2023-03-20T05:32:47;95338.91;;;5.55;66.36
19761;BME280;10039;42.632;23.408;2023-03-20T05:35:13;95303.91;;;5.18;67.02
19761;BME280;10039;42.632;23.408;2023-03-20T05:37:39;95326.78;;;5.47;66.79
19761;BME280;10039;42.632;23.408;2023-03-20T05:40:05;95316.09;;;5.33;66.90
19761;BME280;10039;42.632;23.408;2023-03-20T05:42:31;95299.53;;;5.47;66.36
19761;BME280;10039;42.632;23.408;2023-03-20T05:44:56;95305.56;;;5.40;66.33
19761;BME280;10039;42.632;23.408;2023-03-20T05:47:22;95304.88;;;5.50;66.79
19761;BME280;10039;42.632;23.408;2023-03-20T05:49:48;95329.88;;;5.63;67.19
19761;BME280;10039;42.632;23.408;2023-03-20T05:52:13;95326.03;;;5.50;67.74
19761;BME280;10039;42.632;23.408;2023-03-20T05:54:39;95307.88;;;5.48;67.43
19761;BME280;10039;42.632;23.408;2023-03-20T05:57:05;95304.81;;;5.47;67.13
19761;BME280;10039;42.632;23.408;2023-03-20T05:59:31;95295.47;;;5.59;67.09
19761;BME280;10039;42.632;23.408;2023-03-20T06:01:56;95324.75;;;5.84;66.74
19761;BME280;10039;42.632;23.408;2023-03-20T06:04:22;95333.16;;;6.10;66.54
19761;BME280;10039;42.632;23.408;2023-03-20T06:06:47;95307.41;;;6.04;65.68
19761;BME280;10039;42.632;23.408;2023-03-20T06:09:13;95311.63;;;6.19;65.02
19761;BME280;10039;42.632;23.408;2023-03-20T06:11:39;95315.84;;;6.44;64.33
19761;BME280;10039;42.632;23.408;2023-03-20T06:14:04;95294.66;;;6.41;64.66
19761;BME280;10039;42.632;23.408;2023-03-20T06:16:33;95316.63;;;6.59;64.43
19761;BME280;10039;42.632;23.408;2023-03-20T06:18:58;95322.00;;;6.90;64.46
19761;BME280;10039;42.632;23.408;2023-03-20T06:21:24;95284.84;;;6.65;64.82
19761;BME280;10039;42.632;23.408;2023-03-20T06:23:50;95312.88;;;6.77;64.90
19761;BME280;10039;42.632;23.408;2023-03-20T06:26:16;95330.34;;;6.99;64.68
19761;BME280;10039;42.632;23.408;2023-03-20T06:28:41;95312.88;;;6.94;64.42
19761;BME280;10039;42.632;23.408;2023-03-20T06:31:07;95314.44;;;6.99;64.18
19761;BME280;10039;42.632;23.408;2023-03-20T06:33:43;95333.38;;;7.22;64.17
19761;BME280;10039;42.632;23.408;2023-03-20T06:36:10;95320.47;;;7.17;64.34
19761;BME280;10039;42.632;23.408;2023-03-20T06:38:36;95332.59;;;7.21;64.76
19761;BME280;10039;42.632;23.408;2023-03-20T06:41:02;95302.28;;;7.08;64.23
19761;BME280;10039;42.632;23.408;2023-03-20T06:43:27;95328.81;;;7.36;64.42
19761;BME280;10039;42.632;23.408;2023-03-20T06:45:53;95308.31;;;7.37;63.68
19761;BME280;10039;42.632;23.408;2023-03-20T06:48:19;95326.88;;;7.68;63.33
19761;BME280;10039;42.632;23.408;2023-03-20T06:50:48;95326.44;;;7.87;62.99
19761;BME280;10039;42.632;23.408;2023-03-20T06:53:16;95306.31;;;7.86;62.26
19761;BME280;10039;42.632;23.408;2023-03-20T06:55:50;95306.66;;;8.02;61.58
19761;BME280;10039;42.632;23.408;2023-03-20T06:58:16;95301.63;;;8.28;61.34
19761;BME280;10039;42.632;23.408;2023-03-20T07:00:42;95315.91;;;8.59;61.33
19761;BME280;10039;42.632;23.408;2023-03-20T07:03:07;95307.44;;;8.74;60.30
19761;BME280;10039;42.632;23.408;2023-03-20T07:05:34;95319.47;;;8.92;59.77
19761;BME280;10039;42.632;23.408;2023-03-20T07:07:59;95290.91;;;9.00;59.99
19761;BME280;10039;42.632;23.408;2023-03-20T07:10:25;95297.13;;;9.30;59.80
19761;BME280;10039;42.632;23.408;2023-03-20T07:12:52;95285.25;;;9.38;59.60
19761;BME280;10039;42.632;23.408;2023-03-20T07:15:18;95281.97;;;9.64;57.89
19761;BME280;10039;42.632;23.408;2023-03-20T07:17:43;95290.16;;;9.80;57.02
19761;BME280;10039;42.632;23.408;2023-03-20T07:20:09;95314.56;;;10.12;56.23
19761;BME280;10039;42.632;23.408;2023-03-20T07:22:35;95309.81;;;10.26;55.71
19761;BME280;10039;42.632;23.408;2023-03-20T07:25:01;95319.19;;;10.41;55.55
19761;BME280;10039;42.632;23.408;2023-03-20T07:27:26;95284.88;;;10.40;55.36
19761;BME280;10039;42.632;23.408;2023-03-20T07:29:52;95298.66;;;10.65;54.92
19761;BME280;10039;42.632;23.408;2023-03-20T07:32:18;95271.00;;;10.52;54.67
19761;BME280;10039;42.632;23.408;2023-03-20T07:34:44;95295.81;;;11.02;53.33
19761;BME280;10039;42.632;23.408;2023-03-20T07:37:10;95262.22;;;10.78;52.62
19761;BME280;10039;42.632;23.408;2023-03-20T07:39:35;95270.03;;;10.92;52.63
19761;BME280;10039;42.632;23.408;2023-03-20T07:42:01;95253.31;;;10.88;53.20
19761;BME280;10039;42.632;23.408;2023-03-20T07:44:26;95300.47;;;11.43;52.77
19761;BME280;10039;42.632;23.408;2023-03-20T07:46:52;95289.09;;;11.39;51.32
19761;BME280;10039;42.632;23.408;2023-03-20T07:49:18;95294.94;;;11.57;51.98
19761;BME280;10039;42.632;23.408;2023-03-20T07:51:47;95293.03;;;11.77;52.62
19761;BME280;10039;42.632;23.408;2023-03-20T07:54:13;95276.31;;;11.73;51.41
19761;BME280;10039;42.632;23.408;2023-03-20T07:56:39;95287.56;;;12.04;52.21
19761;BME280;10039;42.632;23.408;2023-03-20T07:59:05;95290.31;;;12.00;51.36
19761;BME280;10039;42.632;23.408;2023-03-20T08:01:31;95294.78;;;12.26;51.28
19761;BME280;10039;42.632;23.408;2023-03-20T08:03:57;95280.72;;;12.22;51.02
19761;BME280;10039;42.632;23.408;2023-03-20T08:06:26;95298.19;;;12.46;50.41
19761;BME280;10039;42.632;23.408;2023-03-20T08:08:51;95306.81;;;12.53;51.21
19761;BME280;10039;42.632;23.408;2023-03-20T08:11:18;95307.03;;;12.78;50.30
19761;BME280;10039;42.632;23.408;2023-03-20T08:13:44;95285.72;;;12.91;51.06
19761;BME280;10039;42.632;23.408;2023-03-20T08:16:10;95263.56;;;12.90;49.53
19761;BME280;10039;42.632;23.408;2023-03-20T08:18:36;95296.81;;;13.25;50.52
19761;BME280;10039;42.632;23.408;2023-03-20T08:21:02;95308.69;;;13.24;49.64
19761;BME280;10039;42.632;23.408;2023-03-20T08:23:28;95282.16;;;13.13;48.68
19761;BME280;10039;42.632;23.408;2023-03-20T08:25:53;95290.53;;;13.31;49.63
19761;BME280;10039;42.632;23.408;2023-03-20T08:28:19;95306.00;;;13.55;48.69
19761;BME280;10039;42.632;23.408;2023-03-20T08:30:46;95301.22;;;13.63;48.59
19761;BME280;10039;42.632;23.408;2023-03-20T08:33:12;95308.13;;;13.32;49.48
19761;BME280;10039;42.632;23.408;2023-03-20T08:35:38;95309.56;;;13.21;49.45
19761;BME280;10039;42.632;23.408;2023-03-20T08:38:04;95299.31;;;13.32;50.07
19761;BME280;10039;42.632;23.408;2023-03-20T08:40:29;95284.22;;;13.53;50.33
19761;BME280;10039;42.632;23.408;2023-03-20T08:42:55;95304.75;;;13.88;49.59
19761;BME280;10039;42.632;23.408;2023-03-20T08:45:21;95301.25;;;13.91;49.14
19761;BME280;10039;42.632;23.408;2023-03-20T08:47:50;95276.50;;;14.00;49.35
19761;BME280;10039;42.632;23.408;2023-03-20T08:50:16;95297.19;;;14.15;48.04
19761;BME280;10039;42.632;23.408;2023-03-20T08:52:42;95295.00;;;14.10;47.79
19761;BME280;10039;42.632;23.408;2023-03-20T08:55:12;95276.16;;;14.26;48.53
19761;BME280;10039;42.632;23.408;2023-03-20T08:57:38;95255.25;;;14.34;47.66
19761;BME280;10039;42.632;23.408;2023-03-20T09:00:05;95279.78;;;14.60;47.33
19761;BME280;10039;42.632;23.408;2023-03-20T09:02:31;95290.69;;;14.29;47.32
19761;BME280;10039;42.632;23.408;2023-03-20T09:04:58;95269.09;;;14.32;47.69
19761;BME280;10039;42.632;23.408;2023-03-20T09:07:24;95251.78;;;14.21;46.62
19761;BME280;10039;42.632;23.408;2023-03-20T09:09:49;95283.06;;;14.52;47.06
19761;BME280;10039;42.632;23.408;2023-03-20T09:12:15;95272.34;;;14.52;46.36
19761;BME280;10039;42.632;23.408;2023-03-20T09:14:41;95272.56;;;14.45;46.18
19761;BME280;10039;42.632;23.408;2023-03-20T09:17:07;95268.53;;;14.25;46.56
19761;BME280;10039;42.632;23.408;2023-03-20T09:19:33;95261.69;;;14.36;48.02
19761;BME280;10039;42.632;23.408;2023-03-20T09:21:59;95239.03;;;14.50;46.88
19761;BME280;10039;42.632;23.408;2023-03-20T09:24:25;95269.03;;;14.73;47.18
19761;BME280;10039;42.632;23.408;2023-03-20T09:26:51;95254.72;;;14.51;46.19
19761;BME280;10039;42.632;23.408;2023-03-20T09:29:17;95254.09;;;14.47;47.15
19761;BME280;10039;42.632;23.408;2023-03-20T09:31:43;95242.88;;;14.36;46.73
19761;BME280;10039;42.632;23.408;2023-03-20T09:34:09;95234.91;;;14.20;46.20
19761;BME280;10039;42.632;23.408;2023-03-20T09:36:34;95255.13;;;14.37;46.79
19761;BME280;10039;42.632;23.408;2023-03-20T09:39:00;95253.63;;;14.36;47.62
19761;BME280;10039;42.632;23.408;2023-03-20T09:41:27;95243.09;;;14.29;46.28
19761;BME280;10039;42.632;23.408;2023-03-20T09:46:53;95241.59;;;14.53;46.29
19761;BME280;10039;42.632;23.408;2023-03-20T09:55:02;95204.56;;;14.48;46.23
19761;BME280;10039;42.632;23.408;2023-03-20T09:57:57;95209.16;;;14.60;47.16
19761;BME280;10039;42.632;23.408;2023-03-20T10:00:27;95192.06;;;14.66;47.57
19761;BME280;10039;42.632;23.408;2023-03-20T10:02:59;95179.50;;;14.51;45.71
19761;BME280;10039;42.632;23.408;2023-03-20T10:08:23;95159.28;;;14.71;43.81
19761;BME280;10039;42.632;23.408;2023-03-20T10:16:16;95161.34;;;15.14;44.86
19761;BME280;10039;42.632;23.408;2023-03-20T10:19:18;95146.94;;;15.20;45.95
19761;BME280;10039;42.632;23.408;2023-03-20T10:21:45;95151.13;;;15.21;43.97
19761;BME280;10039;42.632;23.408;2023-03-20T10:29:53;95154.50;;;15.13;44.33
19761;BME280;10039;42.632;23.408;2023-03-20T10:37:36;95132.72;;;15.20;43.82
19761;BME280;10039;42.632;23.408;2023-03-20T10:40:19;95137.56;;;15.59;45.12
19761;BME280;10039;42.632;23.408;2023-03-20T10:42:50;95133.81;;;15.56;44.14
19761;BME280;10039;42.632;23.408;2023-03-20T10:47:44;95136.81;;;15.58;43.27
19761;BME280;10039;42.632;23.408;2023-03-20T10:50:23;95119.91;;;15.58;43.17
19761;BME280;10039;42.632;23.408;2023-03-20T10:52:54;95120.28;;;15.69;43.90
19761;BME280;10039;42.632;23.408;2023-03-20T10:55:27;95084.13;;;15.48;43.43
19761;BME280;10039;42.632;23.408;2023-03-20T10:58:10;95075.50;;;15.53;43.07
19761;BME280;10039;42.632;23.408;2023-03-20T11:00:38;95105.56;;;15.82;42.51
19761;BME280;10039;42.632;23.408;2023-03-20T11:03:05;95085.25;;;15.60;42.15
19761;BME280;10039;42.632;23.408;2023-03-20T11:05:35;95112.00;;;15.84;42.10
19761;BME280;10039;42.632;23.408;2023-03-20T11:08:05;95101.84;;;15.88;41.27
19761;BME280;10039;42.632;23.408;2023-03-20T11:10:35;95090.50;;;15.93;41.73
19761;BME280;10039;42.632;23.408;2023-03-20T11:15:53;95093.28;;;16.11;40.05
19761;BME280;10039;42.632;23.408;2023-03-20T11:18:23;95074.88;;;16.10;40.29
19761;BME280;10039;42.632;23.408;2023-03-20T11:20:56;95077.72;;;16.06;40.46
19761;BME280;10039;42.632;23.408;2023-03-20T11:23:27;95076.38;;;16.11;40.51
19761;BME280;10039;42.632;23.408;2023-03-20T11:33:51;95030.44;;;16.05;40.17
19761;BME280;10039;42.632;23.408;2023-03-20T11:38:49;95036.16;;;16.16;40.28
19761;BME280;10039;42.632;23.408;2023-03-20T11:41:23;95030.34;;;16.18;39.51
19761;BME280;10039;42.632;23.408;2023-03-20T11:43:49;95021.81;;;16.28;39.39
19761;BME280;10039;42.632;23.408;2023-03-20T11:46:14;95043.78;;;16.57;39.35
19761;BME280;10039;42.632;23.408;2023-03-20T11:48:42;95038.53;;;16.54;39.20
19761;BME280;10039;42.632;23.408;2023-03-20T11:54:02;95012.78;;;16.62;37.45
19761;BME280;10039;42.632;23.408;2023-03-20T11:56:32;95012.94;;;16.76;38.11
19761;BME280;10039;42.632;23.408;2023-03-20T12:01:25;95012.81;;;16.88;37.38
19761;BME280;10039;42.632;23.408;2023-03-20T12:06:25;94986.59;;;16.98;36.06
19761;BME280;10039;42.632;23.408;2023-03-20T12:08:59;94997.63;;;17.18;35.75
19761;BME280;10039;42.632;23.408;2023-03-20T12:19:57;94979.78;;;17.47;35.19
19761;BME280;10039;42.632;23.408;2023-03-20T12:22:36;94942.19;;;17.26;35.61
19761;BME280;10039;42.632;23.408;2023-03-20T12:25:23;94979.91;;;17.53;35.73
19761;BME280;10039;42.632;23.408;2023-03-20T12:35:55;94975.00;;;17.84;34.47
19761;BME280;10039;42.632;23.408;2023-03-20T12:38:27;94956.78;;;17.93;34.30
19761;BME280;10039;42.632;23.408;2023-03-20T12:41:00;94942.59;;;17.84;34.27
19761;BME280;10039;42.632;23.408;2023-03-20T12:43:36;94962.78;;;17.97;34.38
19761;BME280;10039;42.632;23.408;2023-03-20T12:46:43;94956.63;;;17.97;33.45
19761;BME280;10039;42.632;23.408;2023-03-20T12:51:59;94939.69;;;17.96;34.66
19761;BME280;10039;42.632;23.408;2023-03-20T12:54:30;94943.94;;;18.11;34.32
19761;BME280;10039;42.632;23.408;2023-03-20T12:57:10;94937.50;;;18.09;34.06
19761;BME280;10039;42.632;23.408;2023-03-20T12:59:58;94939.97;;;18.21;34.15
19761;BME280;10039;42.632;23.408;2023-03-20T13:02:40;94925.88;;;18.26;32.76
19761;BME280;10039;42.632;23.408;2023-03-20T13:05:29;94928.88;;;18.28;32.54
19761;BME280;10039;42.632;23.408;2023-03-20T13:08:22;94907.53;;;18.30;33.06
19761;BME280;10039;42.632;23.408;2023-03-20T13:11:21;94917.03;;;18.40;32.15
19761;BME280;10039;42.632;23.408;2023-03-20T13:13:52;94917.34;;;18.42;32.19
19761;BME280;10039;42.632;23.408;2023-03-20T13:16:43;94917.09;;;18.55;31.99
19761;BME280;10039;42.632;23.408;2023-03-20T13:19:28;94882.19;;;18.42;31.44
19761;BME280;10039;42.632;23.408;2023-03-20T13:24:49;94900.19;;;18.83;30.56
19761;BME280;10039;42.632;23.408;2023-03-20T13:35:37;94888.72;;;18.88;33.19
19761;BME280;10039;42.632;23.408;2023-03-20T13:38:13;94835.53;;;18.56;30.63
19761;BME280;10039;42.632;23.408;2023-03-20T13:40:42;94844.31;;;18.66;30.73
19761;BME280;10039;42.632;23.408;2023-03-20T13:43:31;94866.31;;;18.73;30.47
19761;BME280;10039;42.632;23.408;2023-03-20T13:48:40;94853.28;;;18.86;29.36
19761;BME280;10039;42.632;23.408;2023-03-20T13:51:38;94854.56;;;19.05;30.90
19761;BME280;10039;42.632;23.408;2023-03-20T14:04:33;94842.47;;;19.15;30.11
19761;BME280;10039;42.632;23.408;2023-03-20T14:06:59;94818.38;;;19.03;28.39
19761;BME280;10039;42.632;23.408;2023-03-20T14:09:34;94843.03;;;19.19;28.53
19761;BME280;10039;42.632;23.408;2023-03-20T14:12:08;94826.56;;;19.08;30.46
19761;BME280;10039;42.632;23.408;2023-03-20T14:14:54;94846.56;;;19.25;28.58
19761;BME280;10039;42.632;23.408;2023-03-20T14:17:25;94841.59;;;19.23;28.49
19761;BME280;10039;42.632;23.408;2023-03-20T14:19:53;94838.03;;;19.32;30.27
19761;BME280;10039;42.632;23.408;2023-03-20T14:22:22;94840.19;;;19.42;32.11
19761;BME280;10039;42.632;23.408;2023-03-20T14:24:59;94837.53;;;19.48;30.53
19761;BME280;10039;42.632;23.408;2023-03-20T14:27:35;94838.88;;;19.38;28.64
19761;BME280;10039;42.632;23.408;2023-03-20T14:33:04;94824.63;;;19.23;28.62
19761;BME280;10039;42.632;23.408;2023-03-20T14:35:35;94795.66;;;19.29;29.40
19761;BME280;10039;42.632;23.408;2023-03-20T14:38:14;94831.91;;;19.51;29.53
19761;BME280;10039;42.632;23.408;2023-03-20T14:46:32;94807.78;;;19.68;29.10
19761;BME280;10039;42.632;23.408;2023-03-20T14:51:50;94808.16;;;19.61;29.46
19761;BME280;10039;42.632;23.408;2023-03-20T14:56:51;94781.78;;;19.56;29.15
19761;BME280;10039;42.632;23.408;2023-03-20T14:59:19;94813.00;;;19.71;29.80
19761;BME280;10039;42.632;23.408;2023-03-20T15:01:55;94807.09;;;19.73;29.26
19761;BME280;10039;42.632;23.408;2023-03-20T15:04:31;94805.22;;;19.59;28.79
19761;BME280;10039;42.632;23.408;2023-03-20T15:07:23;94821.88;;;19.72;29.23
19761;BME280;10039;42.632;23.408;2023-03-20T15:09:52;94807.94;;;19.59;29.52
19761;BME280;10039;42.632;23.408;2023-03-20T15:12:20;94807.66;;;19.57;29.16
19761;BME280;10039;42.632;23.408;2023-03-20T15:15:02;94805.34;;;19.50;29.00
19761;BME280;10039;42.632;23.408;2023-03-20T15:17:44;94812.09;;;19.60;29.02
19761;BME280;10039;42.632;23.408;2023-03-20T15:22:58;94790.91;;;19.38;29.61
19761;BME280;10039;42.632;23.408;2023-03-20T15:25:30;94795.94;;;19.31;29.47
19761;BME280;10039;42.632;23.408;2023-03-20T15:27:57;94804.06;;;19.31;28.92
19761;BME280;10039;42.632;23.408;2023-03-20T15:30:23;94807.88;;;19.39;29.14
19761;BME280;10039;42.632;23.408;2023-03-20T15:32:52;94775.00;;;19.12;29.23
19761;BME280;10039;42.632;23.408;2023-03-20T15:35:20;94773.22;;;19.09;29.43
19761;BME280;10039;42.632;23.408;2023-03-20T15:37:48;94797.28;;;19.21;29.70
19761;BME280;10039;42.632;23.408;2023-03-20T15:40:27;94776.31;;;18.87;30.03
19761;BME280;10039;42.632;23.408;2023-03-20T15:42:55;94773.06;;;18.83;29.79
19761;BME280;10039;42.632;23.408;2023-03-20T15:45:27;94804.56;;;19.01;29.55
19761;BME280;10039;42.632;23.408;2023-03-20T15:48:20;94796.53;;;18.92;30.60